METAR Formatted Surface Weather Observation
Issued by NWS

Home | Current Version | Previous Version | Text Only | Print | Product List | Glossary On
Versions: 1 2 3 4
720
SAUS45 KSLC 251105
MTRU16
METAR KU16 251058Z AUTO 06007KT 10SM CLR 17/01 A3016 RMK
 AO2 SLP829 T01720011 $



USA.gov is the U.S. government's official web portal to all federal, state and local government web resources and services.